createdAt,value
2023-12-01T00:01:32.688Z,98440.50
2023-12-01T00:04:02.087Z,98443.70
2023-12-01T00:06:32.946Z,98442.61
2023-12-01T00:09:02.220Z,98452.50
2023-12-01T00:11:32.228Z,98456.15
2023-12-01T00:14:01.627Z,98460.04
2023-12-01T00:16:32.165Z,98448.65
2023-12-01T00:19:01.802Z,98452.61
2023-12-01T00:21:32.557Z,98448.55
2023-12-01T00:24:01.997Z,98457.11
2023-12-01T00:26:32.532Z,98470.64
2023-12-01T00:29:01.830Z,98482.98
2023-12-01T00:31:32.976Z,98481.86
2023-12-01T00:34:02.397Z,98478.02
2023-12-01T00:36:34.375Z,98470.88
2023-12-01T00:39:04.857Z,98469.51
2023-12-01T00:41:35.500Z,98485.48
2023-12-01T00:44:05.552Z,98483.68
2023-12-01T00:46:36.390Z,98471.83
2023-12-01T00:49:05.665Z,98474.31
2023-12-01T00:51:36.413Z,98486.20
2023-12-01T00:54:06.196Z,98482.79
2023-12-01T00:56:36.718Z,98471.52
2023-12-01T00:59:06.041Z,98458.48
2023-12-01T01:01:37.377Z,98467.38
2023-12-01T01:04:07.328Z,98466.33
2023-12-01T01:06:38.647Z,98471.54
2023-12-01T01:09:08.026Z,98476.17
2023-12-01T01:11:38.559Z,98473.38
2023-12-01T01:14:08.180Z,98469.59
2023-12-01T01:16:39.513Z,98476.19
2023-12-01T01:19:08.969Z,98473.83
2023-12-01T01:21:39.683Z,98468.73
2023-12-01T01:24:09.037Z,98464.37
2023-12-01T01:26:39.598Z,98450.40
2023-12-01T01:29:08.967Z,98444.50
2023-12-01T01:31:39.515Z,98454.98
2023-12-01T01:34:10.008Z,98459.80
2023-12-01T01:36:40.943Z,98459.98
2023-12-01T01:39:10.687Z,98436.00
2023-12-01T01:41:41.214Z,98424.41
2023-12-01T01:44:10.509Z,98435.92
2023-12-01T01:46:41.474Z,98459.89
2023-12-01T01:49:11.034Z,98470.91
2023-12-01T01:51:41.613Z,98476.70
2023-12-01T01:54:11.698Z,98484.88
2023-12-01T01:56:42.432Z,98484.48
2023-12-01T01:59:11.726Z,98481.95
2023-12-01T02:01:42.446Z,98480.50
2023-12-01T02:04:11.894Z,98481.52
2023-12-01T02:06:42.688Z,98483.08
2023-12-01T02:09:12.817Z,98488.95
2023-12-01T02:11:43.866Z,98487.41
2023-12-01T02:14:14.726Z,98472.59
2023-12-01T02:16:48.203Z,98470.20
2023-12-01T02:19:17.653Z,98480.16
2023-12-01T02:21:49.188Z,98490.80
2023-12-01T02:24:18.865Z,98491.10
2023-12-01T02:26:49.485Z,98477.17
2023-12-01T02:29:18.788Z,98468.05
2023-12-01T02:31:49.381Z,98465.70
2023-12-01T02:34:22.724Z,98462.80
2023-12-01T02:36:55.230Z,98483.50
2023-12-01T02:39:24.893Z,98513.00
2023-12-01T02:41:55.421Z,98498.05
2023-12-01T02:44:24.688Z,98490.56
2023-12-01T02:46:55.319Z,98487.55
2023-12-01T02:49:26.211Z,98491.09
2023-12-01T02:51:56.784Z,98493.08
2023-12-01T02:54:26.219Z,98497.36
2023-12-01T02:56:56.766Z,98499.42
2023-12-01T02:59:26.155Z,98503.46
2023-12-01T03:01:57.048Z,98506.84
2023-12-01T03:04:26.591Z,98503.70
2023-12-01T03:06:57.237Z,98508.13
2023-12-01T03:09:26.529Z,98500.35
2023-12-01T03:11:57.047Z,98497.62
2023-12-01T03:14:26.558Z,98509.17
2023-12-01T03:16:58.071Z,98504.27
2023-12-01T03:19:27.302Z,98488.42
2023-12-01T03:21:58.173Z,98484.02
2023-12-01T03:24:27.444Z,98493.77
2023-12-01T03:26:57.966Z,98489.48
2023-12-01T03:29:27.273Z,98491.70
2023-12-01T03:31:57.815Z,98494.47
2023-12-01T03:34:27.299Z,98488.83
2023-12-01T03:36:58.306Z,98474.58
2023-12-01T03:39:27.637Z,98474.41
2023-12-01T03:41:58.788Z,98477.84
2023-12-01T03:44:28.600Z,98473.35
2023-12-01T03:46:59.172Z,98471.98
2023-12-01T03:49:28.632Z,98470.85
2023-12-01T03:51:59.213Z,98479.19
2023-12-01T03:54:28.664Z,98491.23
2023-12-01T03:56:59.499Z,98493.60
2023-12-01T03:59:28.896Z,98491.23
2023-12-01T04:01:59.514Z,98484.23
2023-12-01T04:04:29.006Z,98483.17
2023-12-01T04:06:59.668Z,98480.90
2023-12-01T04:09:28.954Z,98471.02
2023-12-01T04:11:59.590Z,98488.95
2023-12-01T04:14:29.682Z,98495.34
2023-12-01T04:17:11.300Z,98496.56
2023-12-01T04:19:42.135Z,98495.60
2023-12-01T04:22:11.455Z,98485.52
2023-12-01T04:24:42.391Z,98492.52
2023-12-01T04:27:11.672Z,98503.45
2023-12-01T04:29:42.198Z,98501.61
2023-12-01T04:32:11.470Z,98496.23
2023-12-01T04:34:42.128Z,98494.88
2023-12-01T04:37:11.562Z,98487.77
2023-12-01T04:39:42.285Z,98471.27
2023-12-01T04:42:11.565Z,98475.16
2023-12-01T04:44:42.090Z,98490.20
2023-12-01T04:47:11.730Z,98503.35
2023-12-01T04:49:42.329Z,98507.30
2023-12-01T04:52:11.664Z,98506.17
2023-12-01T04:54:43.431Z,98490.74
2023-12-01T04:57:12.895Z,98489.63
2023-12-01T04:59:43.317Z,98494.48
2023-12-01T05:02:12.757Z,98501.57
2023-12-01T05:04:43.622Z,98508.26
2023-12-01T05:07:13.513Z,98515.94
2023-12-01T05:09:44.107Z,98514.38
2023-12-01T05:12:13.396Z,98515.38
2023-12-01T05:14:44.026Z,98514.63
2023-12-01T05:17:13.447Z,98510.52
2023-12-01T05:19:44.164Z,98513.48
2023-12-01T05:22:13.495Z,98518.05
2023-12-01T05:24:44.215Z,98521.08
2023-12-01T05:27:13.864Z,98529.59
2023-12-01T05:29:44.438Z,98540.83
2023-12-01T05:32:14.314Z,98542.39
2023-12-01T05:34:44.929Z,98540.23
2023-12-01T05:37:14.321Z,98539.48
2023-12-01T05:39:44.936Z,98540.62
2023-12-01T05:42:14.215Z,98538.09
2023-12-01T05:44:44.837Z,98537.64
2023-12-01T05:47:14.411Z,98547.55
2023-12-01T05:49:44.971Z,98549.63
2023-12-01T05:52:14.323Z,98546.48
2023-12-01T05:54:45.225Z,98542.15
2023-12-01T05:57:14.517Z,98539.59
2023-12-01T05:59:45.937Z,98544.54
2023-12-01T06:02:15.837Z,98539.44
2023-12-01T06:04:46.737Z,98540.74
2023-12-01T06:07:16.562Z,98544.67
2023-12-01T06:09:49.118Z,98540.65
2023-12-01T06:12:18.494Z,98535.46
2023-12-01T06:14:49.025Z,98535.25
2023-12-01T06:17:18.324Z,98544.06
2023-12-01T06:19:48.953Z,98549.27
2023-12-01T06:22:18.369Z,98547.73
2023-12-01T06:24:48.980Z,98553.64
2023-12-01T06:27:18.398Z,98560.13
2023-12-01T06:29:49.023Z,98557.13
2023-12-01T06:32:18.526Z,98561.38
2023-12-01T06:34:49.059Z,98560.19
2023-12-01T06:37:19.421Z,98551.76
2023-12-01T06:39:50.036Z,98551.79
2023-12-01T06:42:19.486Z,98551.05
2023-12-01T06:44:50.039Z,98541.02
2023-12-01T06:47:19.349Z,98543.80
2023-12-01T06:49:50.280Z,98548.63
2023-12-01T06:52:20.427Z,98555.48
2023-12-01T06:54:51.060Z,98552.65
2023-12-01T06:57:20.325Z,98553.13
2023-12-01T06:59:50.956Z,98558.10
2023-12-01T07:02:22.017Z,98557.98
2023-12-01T07:04:57.030Z,98553.70
2023-12-01T07:07:32.187Z,98555.97
2023-12-01T07:10:07.576Z,98552.48
2023-12-01T07:12:37.012Z,98550.85
2023-12-01T07:15:12.801Z,98555.66
2023-12-01T07:17:43.445Z,98559.27
2023-12-01T07:20:16.074Z,98562.48
2023-12-01T07:22:47.545Z,98552.19
2023-12-01T07:25:26.171Z,98545.45
2023-12-01T07:28:06.934Z,98544.30
2023-12-01T07:30:37.963Z,98547.02
2023-12-01T07:33:07.599Z,98550.59
2023-12-01T07:35:38.580Z,98551.15
2023-12-01T07:38:07.996Z,98547.35
2023-12-01T07:40:38.532Z,98549.86
2023-12-01T07:43:07.876Z,98554.27
2023-12-01T07:45:38.584Z,98550.81
2023-12-01T07:48:11.450Z,98559.61
2023-12-01T07:50:42.181Z,98560.73
2023-12-01T07:53:11.480Z,98562.48
2023-12-01T07:55:44.658Z,98560.38
2023-12-01T07:58:14.201Z,98570.87
2023-12-01T08:00:45.087Z,98577.77
2023-12-01T08:03:14.464Z,98573.77
2023-12-01T08:05:45.342Z,98567.35
2023-12-01T08:08:15.642Z,98571.76
2023-12-01T08:10:46.315Z,98577.17
2023-12-01T08:13:18.616Z,98572.42
2023-12-01T08:15:49.373Z,98582.33
2023-12-01T08:18:19.063Z,98596.66
2023-12-01T08:20:51.064Z,98589.98
2023-12-01T08:23:20.421Z,98595.77
2023-12-01T08:25:53.167Z,98603.40
2023-12-01T08:28:22.754Z,98614.54
2023-12-01T08:30:54.508Z,98620.80
2023-12-01T08:33:23.881Z,98624.88
2023-12-01T08:35:55.834Z,98633.27
2023-12-01T08:38:25.692Z,98641.66
2023-12-01T08:40:56.422Z,98641.16
2023-12-01T08:43:26.135Z,98641.30
2023-12-01T08:45:56.905Z,98639.80
2023-12-01T08:48:26.375Z,98644.75
2023-12-01T08:50:57.024Z,98636.79
2023-12-01T08:53:26.337Z,98625.83
2023-12-01T08:56:00.203Z,98624.44
2023-12-01T08:58:29.920Z,98631.96
2023-12-01T09:01:00.693Z,98639.48
2023-12-01T09:03:30.233Z,98651.20
2023-12-01T09:06:05.046Z,98663.80
2023-12-01T09:08:36.638Z,98666.33
2023-12-01T09:11:06.543Z,98673.05
2023-12-01T09:13:38.157Z,98674.77
2023-12-01T09:16:08.015Z,98672.31
2023-12-01T09:18:38.653Z,98667.70
2023-12-01T09:21:09.319Z,98668.40
2023-12-01T09:23:42.022Z,98681.29
2023-12-01T09:26:20.464Z,98684.66
2023-12-01T09:28:52.450Z,98677.39
2023-12-01T09:31:22.918Z,98662.99
2023-12-01T09:33:53.598Z,98659.64
2023-12-01T09:36:23.207Z,98658.55
2023-12-01T09:38:53.966Z,98651.11
2023-12-01T09:41:23.343Z,98645.04
2023-12-01T09:44:00.154Z,98651.66
2023-12-01T09:46:38.845Z,98650.75
2023-12-01T09:49:08.229Z,98640.79
2023-12-01T09:51:38.902Z,98658.85
2023-12-01T09:54:08.422Z,98682.27
2023-12-01T09:56:39.139Z,98680.55
2023-12-01T09:59:09.109Z,98679.02
2023-12-01T10:01:40.551Z,98666.36
2023-12-01T10:04:10.519Z,98664.30
2023-12-01T10:06:42.081Z,98663.95
2023-12-01T10:09:13.301Z,98671.16
2023-12-01T10:11:44.039Z,98662.86
2023-12-01T10:14:13.524Z,98634.08
2023-12-01T10:16:44.043Z,98636.12
2023-12-01T10:19:16.482Z,98644.29
2023-12-01T10:21:48.080Z,98638.64
2023-12-01T10:24:18.889Z,98639.05
2023-12-01T10:26:51.425Z,98637.23
2023-12-01T10:29:33.996Z,98633.98
2023-12-01T10:32:06.085Z,98626.45
2023-12-01T10:34:35.671Z,98633.50
2023-12-01T10:37:06.945Z,98637.55
2023-12-01T10:39:36.206Z,98642.43
2023-12-01T10:42:08.137Z,98659.00
2023-12-01T10:44:37.569Z,98662.55
2023-12-01T10:47:10.061Z,98640.58
2023-12-01T10:49:41.694Z,98635.70
2023-12-01T10:52:13.827Z,98653.07
2023-12-01T10:54:43.979Z,98657.73
2023-12-01T10:57:33.356Z,98657.22
2023-12-01T11:00:10.994Z,98660.60
2023-12-01T11:02:42.039Z,98661.52
2023-12-01T11:05:11.704Z,98657.46
2023-12-01T11:07:50.208Z,98653.93
2023-12-01T11:10:35.382Z,98650.56
2023-12-01T11:13:15.943Z,98656.64
2023-12-01T11:15:46.562Z,98653.55
2023-12-01T11:18:16.128Z,98649.41
2023-12-01T11:20:48.138Z,98653.23
2023-12-01T11:23:24.958Z,98642.77
2023-12-01T11:26:07.015Z,98646.02
2023-12-01T11:28:38.057Z,98657.63
2023-12-01T11:31:16.128Z,98652.85
2023-12-01T11:33:51.940Z,98649.70
2023-12-01T11:36:23.768Z,98655.29
2023-12-01T11:39:17.596Z,98664.77
2023-12-01T11:41:49.747Z,98661.77
2023-12-01T11:44:20.677Z,98669.69
2023-12-01T11:47:03.769Z,98680.73
2023-12-01T11:49:40.330Z,98682.67
2023-12-01T11:52:22.591Z,98661.13
2023-12-01T11:54:53.999Z,98661.99
2023-12-01T11:57:23.503Z,98668.06
2023-12-01T11:59:58.358Z,98664.05
2023-12-01T12:02:32.144Z,98667.04
2023-12-01T12:05:06.694Z,98663.80
2023-12-01T12:07:39.323Z,98658.50
2023-12-01T12:10:09.350Z,98665.27
2023-12-01T12:12:40.551Z,98656.98
2023-12-01T12:15:11.118Z,98656.58
2023-12-01T12:17:45.965Z,98668.52
2023-12-01T12:20:25.296Z,98670.40
2023-12-01T12:22:56.229Z,98668.73
2023-12-01T12:25:35.627Z,98661.46
2023-12-01T12:28:12.954Z,98664.09
2023-12-01T12:30:44.375Z,98664.25
2023-12-01T12:33:13.929Z,98661.11
2023-12-01T12:35:44.897Z,98661.76
2023-12-01T12:38:15.047Z,98657.42
2023-12-01T12:40:45.707Z,98660.38
2023-12-01T12:43:15.183Z,98660.33
2023-12-01T12:45:46.035Z,98658.20
2023-12-01T12:48:15.614Z,98654.44
2023-12-01T12:50:49.001Z,98651.63
2023-12-01T12:53:18.467Z,98648.32
2023-12-01T12:55:49.071Z,98642.80
2023-12-01T12:58:19.639Z,98631.29
2023-12-01T13:00:50.272Z,98630.21
2023-12-01T13:03:20.161Z,98628.71
2023-12-01T13:05:51.100Z,98620.07
2023-12-01T13:08:20.596Z,98616.67
2023-12-01T13:10:51.336Z,98617.70
2023-12-01T13:13:21.472Z,98618.98
2023-12-01T13:15:53.233Z,98623.55
2023-12-01T13:18:23.278Z,98628.16
2023-12-01T13:20:54.098Z,98638.31
2023-12-01T13:23:23.874Z,98643.88
2023-12-01T13:25:54.507Z,98643.71
2023-12-01T13:28:24.204Z,98635.91
2023-12-01T13:30:54.854Z,98638.69
2023-12-01T13:33:24.274Z,98644.44
2023-12-01T13:35:55.006Z,98656.19
2023-12-01T13:38:25.317Z,98666.95
2023-12-01T13:40:56.337Z,98656.06
2023-12-01T13:43:25.629Z,98662.00
2023-12-01T13:45:56.426Z,98665.87
2023-12-01T13:48:26.234Z,98663.43
2023-12-01T13:50:57.795Z,98673.56
2023-12-01T13:53:27.334Z,98685.48
2023-12-01T13:56:01.720Z,98692.20
2023-12-01T13:58:36.608Z,98695.00
2023-12-01T14:01:06.722Z,98698.17
2023-12-01T14:03:37.422Z,98701.59
2023-12-01T14:06:07.938Z,98675.84
2023-12-01T14:08:38.804Z,98680.92
2023-12-01T14:11:09.490Z,98699.35
2023-12-01T14:13:41.482Z,98709.44
2023-12-01T14:16:11.534Z,98712.34
2023-12-01T14:18:42.274Z,98710.27
2023-12-01T14:21:12.089Z,98710.77
2023-12-01T14:23:42.944Z,98716.22
2023-12-01T14:26:12.597Z,98715.31
2023-12-01T14:28:43.132Z,98706.11
2023-12-01T14:31:12.556Z,98712.79
2023-12-01T14:33:43.286Z,98712.56
2023-12-01T14:36:13.272Z,98715.13
2023-12-01T14:38:43.924Z,98711.56
2023-12-01T14:41:13.321Z,98704.94
2023-12-01T14:43:44.409Z,98699.73
2023-12-01T14:46:14.397Z,98691.15
2023-12-01T14:48:45.188Z,98686.98
2023-12-01T14:51:14.955Z,98693.62
2023-12-01T14:53:45.815Z,98694.21
2023-12-01T14:56:15.269Z,98690.67
2023-12-01T14:58:46.103Z,98684.48
2023-12-01T15:01:15.640Z,98682.42
2023-12-01T15:03:46.690Z,98687.16
2023-12-01T15:06:16.074Z,98692.75
2023-12-01T15:08:46.592Z,98689.32
2023-12-01T15:11:16.065Z,98698.02
2023-12-01T15:13:46.602Z,98702.51
2023-12-01T15:16:18.387Z,98710.15
2023-12-01T15:18:49.120Z,98716.19
2023-12-01T15:21:18.851Z,98710.64
2023-12-01T15:23:49.758Z,98700.23
2023-12-01T15:26:19.141Z,98695.19
2023-12-01T15:28:49.677Z,98697.52
2023-12-01T15:31:19.221Z,98707.90
2023-12-01T15:33:50.312Z,98709.84
2023-12-01T15:36:20.087Z,98709.50
2023-12-01T15:38:50.880Z,98708.61
2023-12-01T15:41:20.288Z,98717.44
2023-12-01T15:43:51.096Z,98720.98
2023-12-01T15:46:20.854Z,98725.35
2023-12-01T15:48:51.576Z,98727.70
2023-12-01T15:51:20.998Z,98719.73
2023-12-01T15:53:51.607Z,98721.04
2023-12-01T15:56:20.966Z,98726.29
2023-12-01T15:58:52.419Z,98727.04
2023-12-01T16:01:21.760Z,98716.46
2023-12-01T16:03:52.570Z,98714.46
2023-12-01T16:06:22.100Z,98725.02
2023-12-01T16:08:52.720Z,98728.14
2023-12-01T16:11:22.000Z,98736.50
2023-12-01T16:13:52.527Z,98740.13
2023-12-01T16:16:21.937Z,98741.07
2023-12-01T16:18:52.590Z,98746.36
2023-12-01T16:21:23.186Z,98739.88
2023-12-01T16:23:54.432Z,98729.14
2023-12-01T16:26:24.347Z,98725.06
2023-12-01T16:28:54.971Z,98732.73
2023-12-01T16:31:24.326Z,98733.89
2023-12-01T16:33:54.961Z,98723.90
2023-12-01T16:36:31.718Z,98725.46
2023-12-01T16:39:06.030Z,98721.98
2023-12-01T16:41:35.397Z,98725.34
2023-12-01T16:44:06.027Z,98725.04
2023-12-01T16:46:35.546Z,98726.88
2023-12-01T16:49:06.277Z,98733.77
2023-12-01T16:51:35.823Z,98733.49
2023-12-01T16:54:06.749Z,98735.66
2023-12-01T16:56:36.215Z,98743.09
2023-12-01T16:59:06.845Z,98744.52
2023-12-01T17:01:36.142Z,98735.65
2023-12-01T17:04:07.039Z,98728.54
2023-12-01T17:06:36.893Z,98724.21
2023-12-01T17:09:07.753Z,98723.98
2023-12-01T17:11:37.954Z,98712.65
2023-12-01T17:14:08.476Z,98710.06
2023-12-01T17:16:37.986Z,98713.41
2023-12-01T17:19:08.713Z,98711.17
2023-12-01T17:21:38.118Z,98726.95
2023-12-01T17:24:09.239Z,98738.56
2023-12-01T17:26:38.666Z,98736.91
2023-12-01T17:29:16.346Z,98734.16
2023-12-01T17:31:50.568Z,98742.30
2023-12-01T17:34:20.715Z,98749.46
2023-12-01T17:36:51.225Z,98750.02
2023-12-01T17:39:23.820Z,98744.79
2023-12-01T17:41:54.488Z,98739.72
2023-12-01T17:44:23.938Z,98742.95
2023-12-01T17:46:54.560Z,98740.86
2023-12-01T17:49:26.066Z,98732.39
2023-12-01T17:51:59.087Z,98726.95
2023-12-01T17:54:28.513Z,98728.20
2023-12-01T17:56:59.175Z,98729.79
2023-12-01T17:59:28.711Z,98726.79
2023-12-01T18:01:59.430Z,98728.61
2023-12-01T18:04:28.920Z,98718.95
2023-12-01T18:06:59.611Z,98713.66
2023-12-01T18:09:29.028Z,98714.21
2023-12-01T18:11:59.913Z,98713.59
2023-12-01T18:14:29.347Z,98716.02
2023-12-01T18:17:00.266Z,98719.00
2023-12-01T18:19:29.905Z,98722.21
2023-12-01T18:22:00.625Z,98732.11
2023-12-01T18:24:29.955Z,98732.52
2023-12-01T18:27:00.570Z,98732.68
2023-12-01T18:29:30.371Z,98740.35
2023-12-01T18:32:01.106Z,98740.43
2023-12-01T18:34:31.495Z,98733.62
2023-12-01T18:37:02.153Z,98725.28
2023-12-01T18:39:31.510Z,98727.30
2023-12-01T18:42:02.289Z,98734.34
2023-12-01T18:44:31.698Z,98735.65
2023-12-01T18:47:02.701Z,98750.33
2023-12-01T18:49:33.161Z,98742.77
2023-12-01T18:52:04.337Z,98735.27
2023-12-01T18:54:33.737Z,98743.51
2023-12-01T18:57:05.215Z,98739.56
2023-12-01T18:59:35.077Z,98732.40
2023-12-01T19:02:05.814Z,98727.98
2023-12-01T19:04:35.401Z,98723.93
2023-12-01T19:07:06.047Z,98725.99
2023-12-01T19:09:36.059Z,98731.91
2023-12-01T19:12:07.027Z,98736.48
2023-12-01T19:14:36.497Z,98750.92
2023-12-01T19:17:07.127Z,98757.84
2023-12-01T19:19:36.590Z,98756.25
2023-12-01T19:22:07.743Z,98760.66
2023-12-01T19:24:36.980Z,98765.08
2023-12-01T19:27:07.524Z,98762.67
2023-12-01T19:29:37.165Z,98765.64
2023-12-01T19:32:08.390Z,98762.75
2023-12-01T19:34:38.394Z,98750.98
2023-12-01T19:37:08.905Z,98745.36
2023-12-01T19:39:38.207Z,98740.89
2023-12-01T19:42:11.726Z,98738.41
2023-12-01T19:44:41.506Z,98730.04
2023-12-01T19:47:12.044Z,98734.71
2023-12-01T19:49:41.688Z,98743.73
2023-12-01T19:52:13.011Z,98748.70
2023-12-01T19:54:42.708Z,98749.31
2023-12-01T19:57:13.369Z,98754.11
2023-12-01T19:59:42.656Z,98754.33
2023-12-01T20:02:13.715Z,98740.48
2023-12-01T20:04:43.077Z,98734.02
2023-12-01T20:07:13.801Z,98738.23
2023-12-01T20:09:43.594Z,98730.11
2023-12-01T20:12:14.531Z,98715.80
2023-12-01T20:14:44.080Z,98721.89
2023-12-01T20:17:14.670Z,98735.30
2023-12-01T20:19:44.269Z,98744.53
2023-12-01T20:22:14.822Z,98749.38
2023-12-01T20:24:44.124Z,98755.79
2023-12-01T20:27:15.649Z,98755.36
2023-12-01T20:29:46.206Z,98754.11
2023-12-01T20:32:16.841Z,98747.39
2023-12-01T20:34:46.447Z,98757.48
2023-12-01T20:37:17.081Z,98754.84
2023-12-01T20:39:46.376Z,98751.48
2023-12-01T20:42:17.038Z,98747.42
2023-12-01T20:44:46.924Z,98740.22
2023-12-01T20:47:17.551Z,98737.17
2023-12-01T20:49:46.914Z,98737.98
2023-12-01T20:52:17.675Z,98728.53
2023-12-01T20:54:47.103Z,98735.18
2023-12-01T20:57:17.854Z,98741.80
2023-12-01T20:59:47.225Z,98733.64
2023-12-01T21:02:17.857Z,98721.77
2023-12-01T21:04:47.249Z,98721.56
2023-12-01T21:07:17.909Z,98724.96
2023-12-01T21:09:47.279Z,98724.64
2023-12-01T21:12:17.898Z,98724.39
2023-12-01T21:14:47.627Z,98727.66
2023-12-01T21:17:19.348Z,98724.45
2023-12-01T21:19:48.784Z,98724.45
2023-12-01T21:22:19.215Z,98724.56
2023-12-01T21:24:48.507Z,98721.84
2023-12-01T21:27:19.434Z,98725.48
2023-12-01T21:29:48.990Z,98729.80
2023-12-01T21:32:20.305Z,98741.70
2023-12-01T21:34:49.723Z,98742.23
2023-12-01T21:37:20.755Z,98745.85
2023-12-01T21:39:50.037Z,98739.91
2023-12-01T21:42:20.634Z,98729.58
2023-12-01T21:44:50.305Z,98731.09
2023-12-01T21:47:21.023Z,98739.48
2023-12-01T21:49:50.366Z,98736.16
2023-12-01T21:52:21.065Z,98738.91
2023-12-01T21:54:50.470Z,98735.70
2023-12-01T21:57:21.503Z,98752.98
2023-12-01T21:59:50.929Z,98740.40
2023-12-01T22:02:21.832Z,98736.59
2023-12-01T22:04:51.144Z,98730.58
2023-12-01T22:07:21.860Z,98726.83
2023-12-01T22:09:51.293Z,98720.77
2023-12-01T22:12:21.851Z,98721.11
2023-12-01T22:14:51.270Z,98724.08
2023-12-01T22:17:22.232Z,98738.75
2023-12-01T22:19:51.529Z,98752.73
2023-12-01T22:22:22.176Z,98752.35
2023-12-01T22:24:51.485Z,98757.13
2023-12-01T22:27:23.258Z,98763.41
2023-12-01T22:29:52.581Z,98773.48
2023-12-01T22:32:24.556Z,98784.86
2023-12-01T22:34:54.191Z,98782.51
2023-12-01T22:37:24.837Z,98779.00
2023-12-01T22:39:54.120Z,98780.50
2023-12-01T22:42:24.792Z,98780.73
2023-12-01T22:44:54.059Z,98776.17
2023-12-01T22:47:24.613Z,98770.31
2023-12-01T22:49:54.292Z,98771.85
2023-12-01T22:52:25.227Z,98774.52
2023-12-01T22:54:54.546Z,98772.80
2023-12-01T22:57:25.401Z,98773.37
2023-12-01T22:59:54.907Z,98773.45
2023-12-01T23:02:25.720Z,98774.55
2023-12-01T23:04:55.108Z,98769.40
2023-12-01T23:07:25.841Z,98766.48
2023-12-01T23:09:55.139Z,98762.08
2023-12-01T23:12:25.707Z,98757.90
2023-12-01T23:14:55.096Z,98741.84
2023-12-01T23:17:25.709Z,98738.81
2023-12-01T23:19:55.191Z,98735.77
2023-12-01T23:22:27.033Z,98730.45
2023-12-01T23:24:56.264Z,98724.79
2023-12-01T23:27:30.059Z,98725.13
2023-12-01T23:30:04.016Z,98721.30
2023-12-01T23:32:33.279Z,98726.43
2023-12-01T23:35:06.404Z,98730.79
2023-12-01T23:37:35.761Z,98727.59
2023-12-01T23:40:07.434Z,98710.66
2023-12-01T23:42:37.065Z,98706.95
2023-12-01T23:45:07.649Z,98729.06
2023-12-01T23:47:36.991Z,98737.96
2023-12-01T23:50:08.442Z,98726.96
2023-12-01T23:52:38.744Z,98727.77
2023-12-01T23:55:09.594Z,98731.58
2023-12-01T23:57:38.872Z,98725.59
